createdAt,value
2023-01-08T00:02:02.045Z,73.32
2023-01-08T00:04:32.596Z,77.58
2023-01-08T00:07:03.283Z,81.49
2023-01-08T00:09:34.412Z,78.61
2023-01-08T00:12:05.798Z,77.15
2023-01-08T00:14:37.483Z,83.92
2023-01-08T00:17:08.719Z,90.10
2023-01-08T00:19:41.224Z,89.48
2023-01-08T00:22:12.347Z,87.40
2023-01-08T00:24:42.896Z,84.71
2023-01-08T00:27:13.431Z,83.38
2023-01-08T00:29:43.959Z,92.87
2023-01-08T00:32:15.719Z,98.85
2023-01-08T00:34:46.880Z,94.38
2023-01-08T00:37:19.420Z,82.04
2023-01-08T00:39:49.982Z,83.68
2023-01-08T00:42:20.645Z,79.24
2023-01-08T00:44:51.204Z,84.00
2023-01-08T00:47:26.512Z,74.69
2023-01-08T00:49:57.038Z,83.61
2023-01-08T00:52:27.784Z,87.91
2023-01-08T00:54:58.314Z,81.25
2023-01-08T00:57:37.970Z,78.67
2023-01-08T01:00:11.614Z,85.59
2023-01-08T01:02:42.829Z,80.36
2023-01-08T01:05:17.803Z,84.31
2023-01-08T01:07:49.496Z,79.30
2023-01-08T01:10:20.446Z,78.91
2023-01-08T01:12:51.345Z,84.64
2023-01-08T01:15:22.444Z,79.81
2023-01-08T01:17:53.176Z,86.35
2023-01-08T01:20:24.024Z,84.69
2023-01-08T01:22:54.580Z,91.46
2023-01-08T01:25:25.087Z,95.67
2023-01-08T01:27:55.832Z,93.85
2023-01-08T01:30:27.515Z,92.78
2023-01-08T01:32:58.073Z,87.17
2023-01-08T01:35:28.624Z,82.23
2023-01-08T01:37:59.195Z,89.03
2023-01-08T01:40:31.122Z,83.63
2023-01-08T01:43:04.505Z,76.19
2023-01-08T01:45:35.152Z,80.40
2023-01-08T01:48:15.440Z,78.03
2023-01-08T01:50:48.992Z,82.79
2023-01-08T01:53:25.202Z,74.46
2023-01-08T01:55:56.928Z,72.60
2023-01-08T01:58:32.876Z,74.54
2023-01-08T02:01:09.144Z,78.25
2023-01-08T02:03:41.284Z,83.91
2023-01-08T02:06:23.580Z,77.35
2023-01-08T02:09:18.240Z,79.85
2023-01-08T02:11:56.045Z,75.58
2023-01-08T02:14:29.712Z,76.59
2023-01-08T02:17:03.377Z,73.98
2023-01-08T02:19:46.044Z,75.93
2023-01-08T02:22:34.706Z,79.22
2023-01-08T02:25:32.359Z,76.98
2023-01-08T02:28:05.637Z,77.37
2023-01-08T02:30:36.439Z,74.27
2023-01-08T02:33:07.258Z,79.37
2023-01-08T02:35:44.616Z,80.34
2023-01-08T02:38:17.942Z,77.24
2023-01-08T02:40:57.026Z,80.51
2023-01-08T02:43:39.252Z,79.37
2023-01-08T02:46:14.094Z,78.62
2023-01-08T02:48:47.991Z,75.18
2023-01-08T02:51:20.794Z,76.90
2023-01-08T02:53:54.043Z,74.92
2023-01-08T02:56:27.551Z,70.05
2023-01-08T02:59:01.253Z,77.14
2023-01-08T03:01:32.601Z,83.07
2023-01-08T03:04:12.625Z,87.21
2023-01-08T03:06:45.455Z,87.25
2023-01-08T03:09:17.580Z,80.35
2023-01-08T03:11:51.036Z,78.45
2023-01-08T03:14:24.847Z,88.96
2023-01-08T03:17:19.433Z,87.46
2023-01-08T03:19:52.892Z,93.95
2023-01-08T03:22:25.471Z,98.37
2023-01-08T03:24:57.872Z,89.45
2023-01-08T03:27:31.317Z,90.63
2023-01-08T03:30:02.538Z,91.68
2023-01-08T03:32:35.105Z,97.12
2023-01-08T03:35:11.005Z,95.38
2023-01-08T03:37:44.600Z,93.50
2023-01-08T03:40:20.891Z,88.44
2023-01-08T03:42:51.527Z,85.42
2023-01-08T03:45:24.429Z,83.89
2023-01-08T03:47:56.756Z,80.69
2023-01-08T03:50:30.673Z,83.40
2023-01-08T03:53:01.925Z,89.70
2023-01-08T03:55:33.515Z,88.79
2023-01-08T03:58:04.180Z,88.55
2023-01-08T04:00:36.443Z,91.24
2023-01-08T04:03:07.209Z,90.41
2023-01-08T04:05:38.077Z,89.20
2023-01-08T04:08:08.619Z,87.80
2023-01-08T04:10:39.206Z,84.13
2023-01-08T04:13:10.088Z,90.42
2023-01-08T04:15:41.040Z,88.42
2023-01-08T04:18:11.616Z,86.95
2023-01-08T04:20:43.643Z,88.53
2023-01-08T04:23:14.315Z,84.55
2023-01-08T04:25:47.344Z,84.22
2023-01-08T04:28:18.540Z,85.53
2023-01-08T04:30:49.259Z,82.89
2023-01-08T04:33:19.829Z,87.77
2023-01-08T04:35:50.410Z,94.46
2023-01-08T04:38:21.618Z,91.80
2023-01-08T04:40:53.911Z,87.76
2023-01-08T04:43:24.468Z,90.03
2023-01-08T04:45:56.710Z,89.57
2023-01-08T04:48:29.758Z,91.34
2023-01-08T04:51:01.789Z,91.66
2023-01-08T04:53:34.557Z,94.08
2023-01-08T04:56:17.915Z,88.77
2023-01-08T04:58:48.455Z,98.42
2023-01-08T05:01:22.436Z,92.88
2023-01-08T05:03:58.146Z,96.25
2023-01-08T05:06:30.610Z,94.60
2023-01-08T05:09:01.673Z,90.02
2023-01-08T05:11:32.222Z,95.50
2023-01-08T05:14:03.178Z,95.37
2023-01-08T05:16:34.517Z,90.07
2023-01-08T05:19:05.102Z,97.08
2023-01-08T05:21:35.694Z,94.79
2023-01-08T05:24:06.424Z,94.20
2023-01-08T05:26:37.583Z,93.12
2023-01-08T05:29:12.729Z,99.82
2023-01-08T05:31:43.675Z,100.00
2023-01-08T05:34:14.248Z,99.72
2023-01-08T05:36:44.845Z,100.00
2023-01-08T05:39:17.338Z,95.65
2023-01-08T05:41:48.265Z,93.01
2023-01-08T05:44:19.686Z,97.00
2023-01-08T05:46:50.224Z,95.61
2023-01-08T05:49:22.537Z,95.49
2023-01-08T05:51:53.459Z,100.00
2023-01-08T05:54:24.078Z,100.00
2023-01-08T05:56:54.673Z,100.00
2023-01-08T05:59:25.214Z,100.00
2023-01-08T06:01:55.775Z,100.00
2023-01-08T06:04:26.461Z,100.00
2023-01-08T06:06:57.432Z,100.00
2023-01-08T06:09:28.023Z,93.11
2023-01-08T06:11:58.558Z,99.69
2023-01-08T06:14:29.094Z,100.00
2023-01-08T06:16:59.669Z,95.59
2023-01-08T06:19:33.394Z,92.32
2023-01-08T06:22:03.991Z,96.47
2023-01-08T06:24:34.570Z,99.88
2023-01-08T06:27:05.116Z,98.49
2023-01-08T06:29:35.654Z,100.00
2023-01-08T06:32:07.938Z,100.00
2023-01-08T06:34:38.835Z,97.15
2023-01-08T06:37:09.426Z,91.93
2023-01-08T06:39:39.994Z,100.00
2023-01-08T06:42:10.566Z,93.84
2023-01-08T06:44:41.477Z,100.00
2023-01-08T06:47:12.418Z,94.87
2023-01-08T06:49:43.370Z,100.00
2023-01-08T06:52:14.138Z,100.00
2023-01-08T06:54:44.711Z,100.00
2023-01-08T06:57:15.859Z,100.00
2023-01-08T06:59:48.413Z,100.00
2023-01-08T07:02:21.069Z,100.00
2023-01-08T07:04:52.516Z,100.00
2023-01-08T07:07:24.280Z,98.84
2023-01-08T07:09:56.555Z,100.00
2023-01-08T07:12:27.240Z,100.00
2023-01-08T07:14:58.015Z,100.00
2023-01-08T07:17:29.685Z,93.49
2023-01-08T07:20:00.354Z,100.00
2023-01-08T07:22:31.885Z,100.00
2023-01-08T07:25:02.765Z,90.98
2023-01-08T07:27:33.296Z,99.71
2023-01-08T07:30:03.973Z,99.78
2023-01-08T07:32:34.626Z,98.23
2023-01-08T07:35:05.598Z,90.51
2023-01-08T07:37:37.954Z,91.47
2023-01-08T07:40:09.800Z,88.50
2023-01-08T07:42:40.439Z,83.70
2023-01-08T07:45:11.303Z,91.31
2023-01-08T07:47:42.262Z,95.93
2023-01-08T07:50:13.197Z,100.00
2023-01-08T07:52:43.751Z,91.87
2023-01-08T07:55:14.304Z,92.22
2023-01-08T07:57:44.865Z,92.68
2023-01-08T08:00:15.967Z,93.02
2023-01-08T08:02:47.472Z,81.72
2023-01-08T08:05:20.875Z,79.91
2023-01-08T08:07:51.382Z,87.85
2023-01-08T08:10:21.980Z,83.76
2023-01-08T08:12:53.899Z,88.88
2023-01-08T08:15:25.362Z,96.16
2023-01-08T08:17:55.983Z,97.04
2023-01-08T08:20:26.811Z,97.33
2023-01-08T08:23:09.270Z,87.41
2023-01-08T08:25:39.816Z,94.34
2023-01-08T08:28:12.587Z,97.60
2023-01-08T08:30:43.704Z,98.49
2023-01-08T08:33:17.270Z,93.78
2023-01-08T08:35:52.240Z,91.63
2023-01-08T08:38:24.136Z,92.22
2023-01-08T08:40:56.769Z,92.30
2023-01-08T08:43:27.308Z,97.91
2023-01-08T08:45:58.450Z,96.36
2023-01-08T08:48:28.993Z,97.44
2023-01-08T08:50:59.565Z,95.81
2023-01-08T08:53:30.139Z,99.00
2023-01-08T08:56:01.000Z,98.53
2023-01-08T08:58:31.626Z,94.73
2023-01-08T09:01:06.290Z,88.87
2023-01-08T09:03:37.698Z,99.00
2023-01-08T09:06:10.026Z,88.20
2023-01-08T09:08:40.562Z,85.27
2023-01-08T09:11:14.338Z,93.90
2023-01-08T09:13:44.370Z,95.22
2023-01-08T09:16:15.112Z,100.00
2023-01-08T09:18:45.814Z,98.75
2023-01-08T09:21:16.656Z,100.00
2023-01-08T09:23:49.984Z,100.00
2023-01-08T09:26:20.561Z,100.00
2023-01-08T09:28:52.168Z,97.31
2023-01-08T09:31:23.883Z,100.00
2023-01-08T09:33:54.588Z,100.00
2023-01-08T09:36:25.170Z,98.11
2023-01-08T09:38:55.725Z,87.62
2023-01-08T09:41:29.198Z,98.54
2023-01-08T09:44:03.505Z,93.33
2023-01-08T09:46:34.822Z,91.82
2023-01-08T09:49:11.171Z,99.61
2023-01-08T09:51:41.888Z,95.95
2023-01-08T09:54:15.309Z,91.86
2023-01-08T09:56:46.716Z,95.03
2023-01-08T09:59:19.381Z,88.32
2023-01-08T10:01:50.128Z,92.28
2023-01-08T10:04:26.933Z,95.38
2023-01-08T10:07:00.431Z,91.99
2023-01-08T10:09:33.068Z,92.34
2023-01-08T10:12:06.216Z,92.51
2023-01-08T10:14:48.718Z,95.04
2023-01-08T10:17:30.860Z,91.32
2023-01-08T10:20:01.375Z,90.00
2023-01-08T10:22:34.481Z,96.47
2023-01-08T10:25:10.909Z,91.54
2023-01-08T10:27:55.856Z,92.92
2023-01-08T10:30:38.267Z,87.00
2023-01-08T10:33:14.492Z,91.44
2023-01-08T10:35:46.801Z,89.15
2023-01-08T10:38:34.995Z,81.51
2023-01-08T10:41:08.443Z,85.56
2023-01-08T10:43:58.193Z,78.77
2023-01-08T10:46:40.436Z,83.26
2023-01-08T10:49:16.513Z,81.05
2023-01-08T10:51:55.796Z,83.94
2023-01-08T10:54:30.624Z,84.41
2023-01-08T10:57:02.619Z,88.63
2023-01-08T10:59:33.323Z,86.28
2023-01-08T11:02:04.873Z,84.12
2023-01-08T11:04:37.845Z,85.75
2023-01-08T11:07:09.096Z,89.26
2023-01-08T11:09:45.665Z,80.25
2023-01-08T11:12:37.375Z,80.16
2023-01-08T11:15:11.245Z,83.95
2023-01-08T11:17:41.793Z,81.67
2023-01-08T11:20:27.299Z,81.63
2023-01-08T11:23:19.232Z,75.76
2023-01-08T11:26:09.139Z,74.71
2023-01-08T11:28:48.479Z,79.38
2023-01-08T11:31:24.708Z,72.92
2023-01-08T11:33:58.142Z,80.71
2023-01-08T11:36:37.655Z,77.56
2023-01-08T11:39:10.507Z,76.85
2023-01-08T11:41:43.963Z,85.26
2023-01-08T11:44:20.325Z,79.07
2023-01-08T11:47:00.907Z,79.92
2023-01-08T11:50:06.144Z,82.94
2023-01-08T11:52:51.397Z,82.94
2023-01-08T11:55:42.886Z,79.70
2023-01-08T11:58:23.382Z,78.81
2023-01-08T12:00:59.349Z,80.31
2023-01-08T12:03:47.959Z,77.44
2023-01-08T12:06:42.563Z,71.17
2023-01-08T12:09:42.634Z,77.60
2023-01-08T12:12:16.581Z,71.61
2023-01-08T12:14:52.756Z,71.57
2023-01-08T12:17:44.157Z,72.02
2023-01-08T12:20:41.282Z,74.71
2023-01-08T12:23:42.771Z,70.91
2023-01-08T12:29:13.058Z,71.42
2023-01-08T12:31:54.474Z,76.00
2023-01-08T12:34:34.962Z,74.32
2023-01-08T12:37:08.390Z,78.82
2023-01-08T12:39:41.866Z,81.59
2023-01-08T12:42:15.261Z,82.44
2023-01-08T12:44:47.849Z,79.87
2023-01-08T12:47:22.279Z,86.81
2023-01-08T12:49:55.719Z,77.77
2023-01-08T12:52:33.197Z,81.49
2023-01-08T12:55:28.959Z,84.69
2023-01-08T12:58:20.397Z,84.69
2023-01-08T13:00:59.603Z,89.80
2023-01-08T13:03:33.217Z,89.80
2023-01-08T13:06:09.766Z,90.29
2023-01-08T13:08:42.948Z,91.70
2023-01-08T13:11:16.061Z,86.08
2023-01-08T13:13:47.645Z,95.64
2023-01-08T13:16:24.622Z,95.64
2023-01-08T13:19:00.538Z,90.67
2023-01-08T13:21:45.741Z,95.44
2023-01-08T13:24:36.792Z,94.84
2023-01-08T13:27:22.243Z,88.07
2023-01-08T13:29:53.575Z,90.39
2023-01-08T13:32:30.088Z,92.76
2023-01-08T13:35:15.383Z,90.25
2023-01-08T13:37:52.099Z,99.00
2023-01-08T13:40:50.724Z,91.13
2023-01-08T13:43:41.922Z,97.36
2023-01-08T13:46:21.029Z,93.31
2023-01-08T13:49:08.780Z,100.00
2023-01-08T13:51:46.183Z,100.00
2023-01-08T13:54:22.474Z,97.65
2023-01-08T13:56:58.906Z,100.00
2023-01-08T13:59:44.302Z,100.00
2023-01-08T14:02:27.006Z,100.00
2023-01-08T14:04:58.425Z,99.67
2023-01-08T14:07:29.402Z,98.65
2023-01-08T14:10:08.422Z,97.07
2023-01-08T14:12:39.127Z,96.23
2023-01-08T14:15:12.260Z,98.39
2023-01-08T14:17:45.120Z,100.00
2023-01-08T14:20:18.539Z,95.12
2023-01-08T14:22:49.141Z,96.65
2023-01-08T14:25:21.597Z,100.00
2023-01-08T14:28:01.217Z,98.64
2023-01-08T14:30:31.774Z,98.70
2023-01-08T14:33:02.837Z,100.00
2023-01-08T14:35:36.238Z,100.00
2023-01-08T14:38:06.808Z,98.23
2023-01-08T14:40:40.633Z,96.35
2023-01-08T14:43:13.804Z,100.00
2023-01-08T14:45:50.053Z,100.00
2023-01-08T14:48:32.518Z,96.97
2023-01-08T14:51:11.529Z,100.00
2023-01-08T14:53:48.447Z,97.54
2023-01-08T14:56:22.319Z,98.89
2023-01-08T14:58:54.852Z,93.27
2023-01-08T15:01:28.428Z,92.46
2023-01-08T15:04:12.780Z,95.75
2023-01-08T15:06:43.388Z,97.31
2023-01-08T15:09:26.384Z,100.00
2023-01-08T15:11:59.523Z,100.00
2023-01-08T15:14:33.506Z,100.00
2023-01-08T15:17:17.105Z,100.00
2023-01-08T15:19:50.579Z,100.00
2023-01-08T15:22:23.665Z,97.78
2023-01-08T15:24:59.915Z,97.29
2023-01-08T15:27:31.676Z,100.00
2023-01-08T15:30:03.905Z,99.71
2023-01-08T15:32:37.574Z,100.00
2023-01-08T15:35:19.497Z,100.00
2023-01-08T15:37:50.024Z,93.25
2023-01-08T15:40:20.585Z,100.00
2023-01-08T15:43:08.967Z,100.00
2023-01-08T15:45:41.996Z,99.76
2023-01-08T15:48:12.877Z,98.06
2023-01-08T15:50:45.660Z,99.38
2023-01-08T15:53:24.489Z,94.96
2023-01-08T15:55:55.049Z,99.50
2023-01-08T15:58:26.719Z,99.05
2023-01-08T16:00:57.296Z,98.61
2023-01-08T16:03:29.529Z,99.26
2023-01-08T16:06:00.116Z,100.00
2023-01-08T16:08:30.673Z,99.06
2023-01-08T16:11:01.232Z,99.88
2023-01-08T16:13:31.786Z,94.86
2023-01-08T16:16:08.320Z,98.03
2023-01-08T16:18:40.627Z,91.55
2023-01-08T16:21:12.684Z,92.55
2023-01-08T16:23:43.367Z,89.00
2023-01-08T16:26:15.834Z,89.55
2023-01-08T16:28:47.464Z,93.39
2023-01-08T16:31:18.265Z,97.21
2023-01-08T16:33:48.811Z,100.00
2023-01-08T16:36:19.378Z,97.71
2023-01-08T16:38:50.308Z,92.17
2023-01-08T16:41:20.948Z,97.25
2023-01-08T16:43:51.478Z,96.74
2023-01-08T16:46:22.079Z,100.00
2023-01-08T16:48:52.656Z,97.99
2023-01-08T16:51:24.907Z,97.90
2023-01-08T16:53:56.527Z,100.00
2023-01-08T16:56:27.086Z,98.23
2023-01-08T16:58:58.361Z,98.96
2023-01-08T17:01:28.955Z,99.52
2023-01-08T17:04:00.707Z,95.28
2023-01-08T17:06:32.611Z,96.20
2023-01-08T17:09:03.163Z,100.00
2023-01-08T17:11:33.741Z,100.00
2023-01-08T17:14:04.323Z,100.00
2023-01-08T17:16:34.975Z,100.00
2023-01-08T17:19:05.724Z,100.00
2023-01-08T17:21:37.399Z,100.00
2023-01-08T17:24:08.622Z,99.57
2023-01-08T17:26:39.188Z,97.14
2023-01-08T17:29:09.755Z,99.94
2023-01-08T17:31:40.559Z,100.00
2023-01-08T17:34:15.620Z,100.00
2023-01-08T17:36:46.180Z,100.00
2023-01-08T17:39:16.732Z,99.06
2023-01-08T17:42:04.904Z,98.86
2023-01-08T17:44:35.452Z,100.00
2023-01-08T17:47:06.001Z,98.97
2023-01-08T17:49:36.583Z,100.00
2023-01-08T17:52:07.262Z,100.00
2023-01-08T17:54:37.844Z,100.00
2023-01-08T17:57:08.476Z,100.00
2023-01-08T17:59:40.201Z,100.00
2023-01-08T18:02:15.788Z,100.00
2023-01-08T18:04:46.117Z,100.00
2023-01-08T18:07:17.133Z,100.00
2023-01-08T18:09:49.464Z,100.00
2023-01-08T18:12:20.331Z,100.00
2023-01-08T18:14:51.263Z,100.00
2023-01-08T18:17:21.847Z,92.12
2023-01-08T18:19:52.372Z,100.00
2023-01-08T18:22:22.923Z,100.00
2023-01-08T18:24:53.471Z,96.51
2023-01-08T18:27:24.263Z,98.99
2023-01-08T18:29:55.940Z,100.00
2023-01-08T18:32:26.516Z,98.13
2023-01-08T18:34:57.161Z,100.00
2023-01-08T18:37:28.747Z,93.38
2023-01-08T18:39:59.302Z,100.00
2023-01-08T18:42:31.069Z,100.00
2023-01-08T18:45:03.140Z,94.25
2023-01-08T18:47:33.680Z,95.57
2023-01-08T18:50:04.968Z,97.31
2023-01-08T18:52:38.866Z,96.13
2023-01-08T18:55:09.935Z,97.44
2023-01-08T18:57:41.636Z,96.27
2023-01-08T19:00:13.266Z,100.00
2023-01-08T19:02:44.436Z,92.00
2023-01-08T19:05:15.157Z,95.03
2023-01-08T19:07:46.035Z,100.00
2023-01-08T19:10:17.682Z,100.00
2023-01-08T19:12:49.016Z,97.06
2023-01-08T19:15:19.678Z,95.22
2023-01-08T19:17:50.219Z,95.60
2023-01-08T19:20:20.942Z,90.85
2023-01-08T19:22:52.769Z,81.84
2023-01-08T19:25:23.723Z,93.85
2023-01-08T19:27:54.284Z,96.39
2023-01-08T19:30:24.818Z,94.56
2023-01-08T19:32:55.396Z,96.72
2023-01-08T19:35:25.944Z,92.04
2023-01-08T19:37:57.720Z,89.32
2023-01-08T19:40:28.276Z,84.64
2023-01-08T19:43:17.832Z,86.82
2023-01-08T19:45:48.489Z,88.03
2023-01-08T19:48:19.046Z,91.55
2023-01-08T19:50:50.124Z,89.94
2023-01-08T19:53:20.679Z,89.50
2023-01-08T19:55:51.212Z,90.62
2023-01-08T19:58:23.487Z,91.95
2023-01-08T20:00:54.073Z,91.34
2023-01-08T20:03:26.259Z,88.73
2023-01-08T20:05:56.837Z,81.49
2023-01-08T20:08:27.396Z,88.81
2023-01-08T20:10:57.966Z,86.18
2023-01-08T20:13:31.243Z,85.71
2023-01-08T20:16:01.896Z,83.28
2023-01-08T20:18:33.150Z,86.83
2023-01-08T20:21:16.527Z,87.76
2023-01-08T20:23:49.067Z,89.72
2023-01-08T20:26:21.100Z,85.63
2023-01-08T20:28:51.700Z,86.41
2023-01-08T20:31:26.350Z,85.14
2023-01-08T20:33:58.821Z,85.28
2023-01-08T20:36:32.641Z,89.49
2023-01-08T20:39:05.765Z,89.32
2023-01-08T20:41:37.541Z,87.55
2023-01-08T20:44:09.185Z,82.47
2023-01-08T20:46:40.335Z,92.03
2023-01-08T20:49:17.192Z,84.48
2023-01-08T20:51:57.864Z,86.54
2023-01-08T20:54:20.359Z,84.83
2023-01-08T20:56:51.947Z,82.85
2023-01-08T20:59:24.917Z,84.41
2023-01-08T21:02:00.642Z,92.31
2023-01-08T21:04:32.231Z,82.42
2023-01-08T21:07:08.363Z,81.57
2023-01-08T21:09:40.489Z,89.77
2023-01-08T21:12:12.756Z,84.89
2023-01-08T21:14:45.377Z,77.51
2023-01-08T21:17:17.343Z,84.82
2023-01-08T21:19:53.340Z,95.15
2023-01-08T21:22:26.414Z,87.76
2023-01-08T21:24:58.309Z,91.70
2023-01-08T21:27:31.708Z,87.77
2023-01-08T21:30:14.811Z,86.94
2023-01-08T21:32:47.092Z,82.96
2023-01-08T21:35:20.739Z,77.11
2023-01-08T21:37:52.844Z,80.93
2023-01-08T21:40:26.479Z,85.44
2023-01-08T21:43:17.717Z,91.06
2023-01-08T21:45:58.082Z,100.00
2023-01-08T21:48:33.462Z,84.32
2023-01-08T21:51:05.587Z,87.83
2023-01-08T21:53:38.279Z,90.80
2023-01-08T21:56:11.168Z,84.23
2023-01-08T21:58:44.022Z,95.42
2023-01-08T22:01:16.901Z,93.19
2023-01-08T22:03:50.973Z,90.97
2023-01-08T22:06:27.880Z,90.70
2023-01-08T22:08:59.431Z,87.36
2023-01-08T22:11:31.308Z,94.95
2023-01-08T22:14:06.575Z,96.67
2023-01-08T22:16:40.872Z,96.79
2023-01-08T22:19:14.936Z,94.68
2023-01-08T22:21:48.746Z,95.39
2023-01-08T22:24:25.493Z,95.32
2023-01-08T22:26:57.233Z,90.07
2023-01-08T22:29:33.731Z,88.64
2023-01-08T22:32:06.846Z,94.06
2023-01-08T22:34:38.551Z,93.35
2023-01-08T22:37:12.033Z,87.21
2023-01-08T22:39:44.737Z,92.44
2023-01-08T22:42:20.310Z,97.34
2023-01-08T22:45:02.981Z,93.48
2023-01-08T22:47:37.999Z,89.43
2023-01-08T22:50:13.142Z,95.24
2023-01-08T22:52:45.573Z,97.23
2023-01-08T22:55:16.619Z,89.62
2023-01-08T22:57:48.939Z,95.75
2023-01-08T23:00:22.469Z,88.98
2023-01-08T23:02:55.426Z,85.57
2023-01-08T23:05:26.889Z,85.87
2023-01-08T23:08:01.765Z,90.02
2023-01-08T23:10:37.991Z,91.76
2023-01-08T23:13:11.198Z,99.42
2023-01-08T23:15:46.873Z,90.46
2023-01-08T23:18:18.829Z,100.00
2023-01-08T23:20:49.356Z,96.28
2023-01-08T23:23:20.122Z,90.89
2023-01-08T23:25:50.817Z,96.50
2023-01-08T23:28:24.694Z,97.72
2023-01-08T23:30:55.263Z,96.72
2023-01-08T23:33:25.943Z,95.93
2023-01-08T23:35:56.473Z,89.37
2023-01-08T23:38:27.569Z,87.38
2023-01-08T23:40:59.248Z,90.04
2023-01-08T23:43:31.125Z,95.40
2023-01-08T23:46:08.769Z,87.68
2023-01-08T23:48:39.589Z,85.35
2023-01-08T23:51:10.631Z,88.79
2023-01-08T23:53:42.311Z,93.08
2023-01-08T23:56:12.934Z,85.23
2023-01-08T23:58:45.163Z,90.71
